Time;durP1;ratioP1;P1;durP2;ratioP2;P2;SDS_P1;SDS_P2;PMS_P1;PMS_P2;Temp;Humidity;BMP_temperature;BMP_pressure;BME280_temperature;BME280_humidity;BME280_pressure;Samples;Min_cycle;Max_cycle;Signal;HPM_P1;HPM_P2
2022/12/14 00:01:36;;;;;;;;;;;;;;;-2.52;82.62;100484.09;5085034;28;20591;-63
2022/12/14 00:04:01;;;;;;;;;;;;;;;-2.51;82.44;100477.97;5086302;28;19923;-63
2022/12/14 00:06:28;;;;;;;;;;;;;;;-2.52;82.40;100475.47;5083492;28;19916;-63
2022/12/14 00:08:54;;;;;;;;;;;;;;;-2.51;82.57;100470.16;5085702;28;19923;-63
2022/12/14 00:11:21;;;;;;;;;;;;;;;-2.50;82.61;100453.63;5083983;28;20101;-63
2022/12/14 00:13:52;;;;;;;;;;;;;;;-2.51;82.54;100451.97;5087032;28;19977;-64
2022/12/14 00:16:17;;;;;;;;;;;;;;;-2.56;82.58;100446.22;5084834;28;19916;-64
2022/12/14 00:18:43;;;;;;;;;;;;;;;-2.56;82.42;100446.22;5085860;28;19951;-63
2022/12/14 00:21:10;;;;;;;;;;;;;;;-2.57;82.34;100444.56;5084268;28;20388;-63
2022/12/14 00:23:36;;;;;;;;;;;;;;;-2.57;82.23;100449.75;5087748;28;20414;-63
2022/12/14 00:26:21;;;;;;;;;;;;;;;-2.55;82.44;100450.50;5083722;28;19924;-63
2022/12/14 00:28:47;;;;;;;;;;;;;;;-2.54;82.28;100451.31;5085853;28;19943;-64
2022/12/14 00:31:12;;;;;;;;;;;;;;;-2.56;82.09;100454.03;5077557;28;20438;-64
2022/12/14 00:33:38;;;;;;;;;;;;;;;-2.54;82.13;100446.97;5085860;28;19928;-63
2022/12/14 00:36:04;;;;;;;;;;;;;;;-2.54;82.28;100449.56;5091492;28;19923;-64
2022/12/14 00:38:29;;;;;;;;;;;;;;;-2.56;82.13;100448.00;5090825;28;20007;-63
2022/12/14 00:40:54;;;;;;;;;;;;;;;-2.57;82.00;100449.75;5080464;28;19924;-64
2022/12/14 00:43:20;;;;;;;;;;;;;;;-2.58;81.91;100442.88;5087126;28;19916;-63
2022/12/14 00:45:45;;;;;;;;;;;;;;;-2.61;81.54;100434.41;5083898;28;19995;-63
2022/12/14 00:48:11;;;;;;;;;;;;;;;-2.64;81.38;100435.44;5087424;28;19930;-63
2022/12/14 00:50:36;;;;;;;;;;;;;;;-2.67;81.53;100430.44;5084037;28;19950;-63
2022/12/14 00:53:01;;;;;;;;;;;;;;;-2.72;81.11;100409.13;5081871;28;20012;-64
2022/12/14 00:55:26;;;;;;;;;;;;;;;-2.73;81.21;100407.44;5082807;28;20012;-63
2022/12/14 00:57:52;;;;;;;;;;;;;;;-2.73;80.88;100406.63;5087941;28;19919;-64
2022/12/14 01:00:17;;;;;;;;;;;;;;;-2.73;80.98;100401.41;5086553;28;20386;-65
2022/12/14 01:02:42;;;;;;;;;;;;;;;-2.75;81.01;100393.72;5085175;28;20001;-63
2022/12/14 01:05:07;;;;;;;;;;;;;;;-2.74;81.11;100397.16;5086577;28;19916;-64
2022/12/14 01:07:33;;;;;;;;;;;;;;;-2.71;81.26;100399.56;5083163;28;19924;-63
2022/12/14 01:09:58;;;;;;;;;;;;;;;-2.71;81.39;100391.75;5087347;28;19981;-65
2022/12/14 01:12:23;;;;;;;;;;;;;;;-2.73;81.42;100385.84;5082940;28;20375;-64
2022/12/14 01:14:48;;;;;;;;;;;;;;;-2.76;81.22;100384.25;5085495;28;19969;-66
2022/12/14 01:17:13;;;;;;;;;;;;;;;-2.75;81.39;100385.94;5080175;28;20409;-63
2022/12/14 01:19:39;;;;;;;;;;;;;;;-2.79;81.32;100376.66;5088942;28;19926;-64
2022/12/14 01:22:04;;;;;;;;;;;;;;;-2.77;81.51;100373.97;5095225;28;19916;-64
2022/12/14 01:24:29;;;;;;;;;;;;;;;-2.79;81.59;100371.47;5086476;28;20360;-65
2022/12/14 01:26:54;;;;;;;;;;;;;;;-2.81;81.53;100368.97;5088576;28;19973;-63
2022/12/14 01:29:19;;;;;;;;;;;;;;;-2.79;81.49;100371.47;5085085;28;19916;-65
2022/12/14 01:31:45;;;;;;;;;;;;;;;-2.82;81.39;100374.25;5086119;28;19938;-63
2022/12/14 01:34:10;;;;;;;;;;;;;;;-2.79;81.51;100373.22;5089246;28;19920;-65
2022/12/14 01:36:35;;;;;;;;;;;;;;;-2.78;81.45;100374.91;5082939;28;19920;-63
2022/12/14 01:39:04;;;;;;;;;;;;;;;-2.81;81.31;100375.94;5082947;28;19923;-64
2022/12/14 01:41:30;;;;;;;;;;;;;;;-2.81;81.16;100373.34;5083811;28;20032;-63
2022/12/14 01:43:57;;;;;;;;;;;;;;;-2.81;81.13;100379.34;5084890;28;19924;-63
2022/12/14 01:46:28;;;;;;;;;;;;;;;-2.79;81.24;100375.84;5083191;28;19924;-63
2022/12/14 01:48:57;;;;;;;;;;;;;;;-2.78;81.34;100370.53;5083518;28;19916;-63
2022/12/14 01:51:24;;;;;;;;;;;;;;;-2.79;81.38;100376.66;5085690;28;19920;-63
2022/12/14 01:53:49;;;;;;;;;;;;;;;-2.79;81.31;100381.84;5084115;28;19959;-64
2022/12/14 01:56:15;;;;;;;;;;;;;;;-2.78;81.32;100374.91;5086774;28;20396;-63
2022/12/14 01:58:40;;;;;;;;;;;;;;;-2.78;81.44;100375.72;5076697;28;19963;-63
2022/12/14 02:01:06;;;;;;;;;;;;;;;-2.76;81.17;100370.44;5085659;28;19963;-63
2022/12/14 02:03:33;;;;;;;;;;;;;;;-2.77;81.31;100371.38;5081921;28;19962;-63
2022/12/14 02:06:04;;;;;;;;;;;;;;;-2.77;81.21;100373.97;5084603;28;19916;-63
2022/12/14 02:08:30;;;;;;;;;;;;;;;-2.78;81.22;100370.53;5081069;28;19916;-66
2022/12/14 02:10:55;;;;;;;;;;;;;;;-2.78;81.27;100365.34;5086318;28;20368;-63
2022/12/14 02:13:25;;;;;;;;;;;;;;;-2.79;81.31;100363.66;5079317;28;19946;-63
2022/12/14 02:15:51;;;;;;;;;;;;;;;-2.81;81.21;100353.38;5080698;28;20008;-63
2022/12/14 02:18:19;;;;;;;;;;;;;;;-2.81;81.10;100347.34;5088067;28;20010;-64
2022/12/14 02:21:03;;;;;;;;;;;;;;;-2.83;81.25;100349.22;5087142;28;20074;-64
2022/12/14 02:23:46;;;;;;;;;;;;;;;-2.84;81.18;100350.97;5081593;28;19917;-63
2022/12/14 02:26:26;;;;;;;;;;;;;;;-2.83;81.30;100338.81;5079829;28;19958;-63
2022/12/14 02:29:00;;;;;;;;;;;;;;;-2.86;81.07;100342.44;5083081;28;19916;-63
2022/12/14 02:31:32;;;;;;;;;;;;;;;-2.88;81.18;100341.72;5084449;28;19911;-63
2022/12/14 02:34:04;;;;;;;;;;;;;;;-2.88;81.04;100339.13;5087064;28;19966;-63
2022/12/14 02:36:33;;;;;;;;;;;;;;;-2.90;81.00;100335.75;5086115;28;19912;-63
2022/12/14 02:39:17;;;;;;;;;;;;;;;-2.89;81.11;100334.00;5081736;28;20642;-64
2022/12/14 02:41:56;;;;;;;;;;;;;;;-2.90;81.10;100333.16;5080373;28;20288;-63
2022/12/14 02:44:45;;;;;;;;;;;;;;;-2.91;81.20;100341.88;5081492;28;20049;-63
2022/12/14 02:47:14;;;;;;;;;;;;;;;-2.91;81.34;100335.84;5055538;28;20032;-62
2022/12/14 02:49:51;;;;;;;;;;;;;;;-2.90;81.37;100335.75;5079417;28;19913;-63
2022/12/14 02:52:31;;;;;;;;;;;;;;;-2.90;81.31;100347.91;5081941;28;19936;-65
2022/12/14 02:55:25;;;;;;;;;;;;;;;-2.90;81.17;100343.53;5081181;28;19920;-63
2022/12/14 02:58:10;;;;;;;;;;;;;;;-2.88;81.04;100343.47;5073812;28;19955;-64
2022/12/14 03:00:36;;;;;;;;;;;;;;;-2.89;81.15;100334.84;5082483;28;20414;-63
2022/12/14 03:03:03;;;;;;;;;;;;;;;-2.90;81.04;100338.34;5087660;28;19951;-63
2022/12/14 03:05:28;;;;;;;;;;;;;;;-2.91;81.07;100338.44;5090320;28;19924;-62
2022/12/14 03:07:58;;;;;;;;;;;;;;;-2.92;81.10;100337.63;5089279;28;20312;-63
2022/12/14 03:10:27;;;;;;;;;;;;;;;-2.92;81.16;100331.59;5090660;28;19920;-64
2022/12/14 03:12:59;;;;;;;;;;;;;;;-2.94;81.10;100331.69;5086627;28;20338;-63
2022/12/14 03:15:25;;;;;;;;;;;;;;;-2.92;80.99;100329.00;5083042;28;19916;-63
2022/12/14 03:17:54;;;;;;;;;;;;;;;-2.91;81.19;100325.47;5097375;28;19916;-62
2022/12/14 03:20:21;;;;;;;;;;;;;;;-2.90;81.12;100325.38;5089173;28;20018;-64
2022/12/14 03:22:56;;;;;;;;;;;;;;;-2.89;81.05;100328.78;5092445;28;19923;-63
2022/12/14 03:25:25;;;;;;;;;;;;;;;-2.89;81.10;100327.06;5085677;28;20758;-63
2022/12/14 03:28:16;;;;;;;;;;;;;;;-2.87;81.11;100324.38;5086576;28;19916;-63
2022/12/14 03:30:43;;;;;;;;;;;;;;;-2.88;80.98;100323.53;5078369;28;19916;-63
2022/12/14 03:33:12;;;;;;;;;;;;;;;-2.88;80.93;100318.34;5080333;28;19917;-63
2022/12/14 03:35:41;;;;;;;;;;;;;;;-2.88;80.91;100310.53;5091163;28;19989;-63
2022/12/14 03:38:10;;;;;;;;;;;;;;;-2.87;80.96;100298.38;5088141;28;19920;-63
2022/12/14 03:40:41;;;;;;;;;;;;;;;-2.87;80.89;100299.22;5086987;28;20007;-63
2022/12/14 03:43:13;;;;;;;;;;;;;;;-2.87;80.62;100300.97;5080083;28;20006;-64
2022/12/14 03:45:45;;;;;;;;;;;;;;;-2.87;80.65;100293.19;5083177;28;19918;-63
2022/12/14 03:48:20;;;;;;;;;;;;;;;-2.86;80.77;100298.28;5085165;28;19916;-63
2022/12/14 03:50:49;;;;;;;;;;;;;;;-2.86;80.71;100290.50;5093106;28;20384;-64
2022/12/14 03:53:19;;;;;;;;;;;;;;;-2.86;80.80;100289.66;5090982;28;19923;-63
2022/12/14 03:55:51;;;;;;;;;;;;;;;-2.85;80.86;100273.97;5089363;28;20462;-63
2022/12/14 03:58:30;;;;;;;;;;;;;;;-2.84;80.94;100272.19;5087003;28;19920;-63
2022/12/14 04:01:14;;;;;;;;;;;;;;;-2.83;80.98;100272.09;5083468;28;19924;-63
2022/12/14 04:03:52;;;;;;;;;;;;;;;-2.81;81.05;100278.03;5083146;28;19969;-64
2022/12/14 04:06:22;;;;;;;;;;;;;;;-2.79;81.05;100275.34;5087915;28;19967;-63
2022/12/14 04:09:06;;;;;;;;;;;;;;;-2.79;81.02;100277.94;5086302;28;19924;-63
2022/12/14 04:20:42;;;;;;;;;;;;;;;-2.78;81.05;100261.41;5085070;28;20283;-63
2022/12/14 04:23:13;;;;;;;;;;;;;;;-2.79;81.04;100256.31;5077539;28;19923;-65
2022/12/14 04:31:14;;;;;;;;;;;;;;;-2.79;81.10;100245.91;5086272;28;19970;-64
2022/12/14 04:33:47;;;;;;;;;;;;;;;-2.79;81.13;100238.94;5082102;28;20610;-65
2022/12/14 04:36:21;;;;;;;;;;;;;;;-2.82;81.04;100233.97;5088330;28;19978;-63
2022/12/14 04:38:47;;;;;;;;;;;;;;;-2.82;80.84;100231.38;5088130;28;19952;-63
2022/12/14 04:41:16;;;;;;;;;;;;;;;-2.83;80.99;100227.94;5087021;28;19920;-63
2022/12/14 04:43:43;;;;;;;;;;;;;;;-2.82;81.01;100231.38;5087162;28;20391;-63
2022/12/14 04:46:11;;;;;;;;;;;;;;;-2.83;80.88;100224.50;5087991;28;20003;-63
2022/12/14 04:48:39;;;;;;;;;;;;;;;-2.82;81.12;100221.81;5083293;28;19916;-64
2022/12/14 04:51:13;;;;;;;;;;;;;;;-2.82;80.80;100229.59;5086830;28;20287;-63
2022/12/14 04:53:41;;;;;;;;;;;;;;;-2.79;80.99;100225.13;5085531;28;21627;-63
2022/12/14 04:56:15;;;;;;;;;;;;;;;-2.79;80.94;100217.34;5083158;28;19969;-64
2022/12/14 04:58:41;;;;;;;;;;;;;;;-2.79;80.79;100222.53;5087307;28;19932;-63
2022/12/14 05:01:24;;;;;;;;;;;;;;;-2.82;80.68;100218.38;5088675;28;19920;-64
2022/12/14 05:03:57;;;;;;;;;;;;;;;-2.84;80.52;100213.28;5092208;28;19912;-64
2022/12/14 05:06:25;;;;;;;;;;;;;;;-2.82;80.86;100216.59;5084648;28;20485;-63
2022/12/14 05:09:10;;;;;;;;;;;;;;;-2.84;80.73;100204.66;5083141;28;20315;-63
2022/12/14 05:11:41;;;;;;;;;;;;;;;-2.83;80.68;100201.94;5082057;28;20011;-63
2022/12/14 05:14:09;;;;;;;;;;;;;;;-2.81;80.75;100204.44;5088575;28;19973;-63
2022/12/14 05:16:35;;;;;;;;;;;;;;;-2.79;80.74;100210.38;5089246;28;20487;-63
2022/12/14 05:19:00;;;;;;;;;;;;;;;-2.81;80.86;100202.69;5090064;28;19912;-63
2022/12/14 05:24:09;;;;;;;;;;;;;;;-2.78;80.80;100206.00;5083185;28;20000;-63
2022/12/14 05:26:34;;;;;;;;;;;;;;;-2.80;80.87;100195.72;5083944;28;19923;-63
2022/12/14 05:28:59;;;;;;;;;;;;;;;-2.81;80.84;100194.88;5083746;28;20225;-63
2022/12/14 05:31:24;;;;;;;;;;;;;;;-2.83;81.01;100196.75;5080900;28;19977;-63
2022/12/14 05:33:49;;;;;;;;;;;;;;;-2.83;80.91;100194.16;5086725;28;19920;-63
2022/12/14 05:36:15;;;;;;;;;;;;;;;-2.84;80.92;100199.47;5084720;28;20015;-65
2022/12/14 05:38:40;;;;;;;;;;;;;;;-2.86;80.91;100199.56;5085129;28;20307;-64
2022/12/14 05:41:05;;;;;;;;;;;;;;;-2.85;80.90;100196.03;5086687;28;19951;-64
2022/12/14 05:43:30;;;;;;;;;;;;;;;-2.86;80.97;100196.97;5089583;28;21432;-62
2022/12/14 05:45:59;;;;;;;;;;;;;;;-2.86;80.99;100191.78;5085947;28;20303;-63
2022/12/14 05:48:24;;;;;;;;;;;;;;;-2.85;81.00;100192.59;5085992;28;20409;-63
2022/12/14 05:50:50;;;;;;;;;;;;;;;-2.86;81.00;100194.38;5085862;28;19916;-63
2022/12/14 05:53:15;;;;;;;;;;;;;;;-2.85;81.02;100192.59;5087023;28;19973;-65
2022/12/14 05:55:45;;;;;;;;;;;;;;;-2.84;81.33;100196.84;5082674;28;19927;-62
2022/12/14 05:58:10;;;;;;;;;;;;;;;-2.84;81.07;100192.50;5079559;28;19916;-63
2022/12/14 06:00:36;;;;;;;;;;;;;;;-2.83;81.09;100204.56;5080865;28;20644;-63
2022/12/14 06:03:01;;;;;;;;;;;;;;;-2.82;81.20;100197.59;5085040;28;19920;-63
2022/12/14 06:05:26;;;;;;;;;;;;;;;-2.82;81.22;100200.19;5080575;28;19955;-63
2022/12/14 06:07:52;;;;;;;;;;;;;;;-2.83;81.24;100194.16;5084625;28;19916;-63
2022/12/14 06:10:17;;;;;;;;;;;;;;;-2.93;81.25;100177.50;5079697;28;19919;-63
2022/12/14 06:12:43;;;;;;;;;;;;;;;-2.83;81.32;100190.72;5085281;28;19924;-63
2022/12/14 06:15:08;;;;;;;;;;;;;;;-2.84;81.21;100187.31;5081954;28;19919;-64
2022/12/14 06:17:33;;;;;;;;;;;;;;;-2.86;81.26;100177.94;5084159;28;20456;-63
2022/12/14 06:19:58;;;;;;;;;;;;;;;-2.88;81.24;100179.81;5078437;28;19923;-63
2022/12/14 06:22:23;;;;;;;;;;;;;;;-2.91;81.28;100178.22;5084776;28;20277;-67
2022/12/14 06:24:49;;;;;;;;;;;;;;;-2.91;81.29;100182.59;5086025;28;19922;-64
2022/12/14 06:27:14;;;;;;;;;;;;;;;-2.91;81.36;100180.81;5089314;28;19979;-64
2022/12/14 06:29:39;;;;;;;;;;;;;;;-2.91;81.37;100170.44;5080484;28;19924;-64
2022/12/14 06:32:04;;;;;;;;;;;;;;;-2.91;81.34;100178.22;5081005;28;19916;-65
2022/12/14 06:34:29;;;;;;;;;;;;;;;-2.92;81.27;100184.34;5078705;28;19921;-63
2022/12/14 06:36:55;;;;;;;;;;;;;;;-2.93;81.33;100180.09;5084476;28;19916;-66
2022/12/14 06:39:20;;;;;;;;;;;;;;;-2.93;81.32;100182.69;5082000;28;19924;-63
2022/12/14 06:41:47;;;;;;;;;;;;;;;-2.93;81.32;100187.06;5079718;28;19966;-64
2022/12/14 06:44:13;;;;;;;;;;;;;;;-2.92;81.38;100188.72;5082896;28;19950;-65
2022/12/14 06:46:38;;;;;;;;;;;;;;;-2.91;81.41;100191.22;5085208;28;19989;-63
2022/12/14 06:49:04;;;;;;;;;;;;;;;-2.90;81.53;100192.03;5084353;28;19961;-64
2022/12/14 06:51:30;;;;;;;;;;;;;;;-2.90;81.52;100190.28;5090830;28;19978;-63
2022/12/14 06:53:56;;;;;;;;;;;;;;;-2.90;81.45;100184.25;5084169;28;19932;-64
2022/12/14 06:56:22;;;;;;;;;;;;;;;-2.88;81.47;100195.41;5088338;28;19916;-64
2022/12/14 06:58:47;;;;;;;;;;;;;;;-2.89;81.41;100196.31;5087997;28;20508;-64
2022/12/14 07:01:14;;;;;;;;;;;;;;;-2.88;81.44;100195.41;5089247;28;20427;-63
2022/12/14 07:03:40;;;;;;;;;;;;;;;-2.90;81.40;100198.06;5075095;28;19978;-64
2022/12/14 07:06:05;;;;;;;;;;;;;;;-2.90;81.45;100197.25;5086933;28;20457;-64
2022/12/14 07:08:32;;;;;;;;;;;;;;;-2.91;81.59;100196.41;5092962;28;19956;-63
2022/12/14 07:11:00;;;;;;;;;;;;;;;-2.92;81.51;100199.94;5086249;28;20370;-64
2022/12/14 07:13:25;;;;;;;;;;;;;;;-2.95;81.53;100202.75;5081859;28;20351;-63
2022/12/14 07:15:51;;;;;;;;;;;;;;;-2.96;81.44;100203.66;5083783;28;19916;-63
2022/12/14 07:18:17;;;;;;;;;;;;;;;-2.99;81.37;100198.69;5085985;28;19916;-63
2022/12/14 07:20:43;;;;;;;;;;;;;;;-3.03;81.19;100206.78;5081295;28;19927;-64
2022/12/14 07:23:08;;;;;;;;;;;;;;;-3.07;81.12;100202.72;5081642;28;19919;-63
2022/12/14 07:25:33;;;;;;;;;;;;;;;-3.11;81.28;100194.31;5079717;28;20423;-65
2022/12/14 07:27:59;;;;;;;;;;;;;;;-3.16;81.05;100202.38;5081523;28;19931;-65
2022/12/14 07:30:24;;;;;;;;;;;;;;;-3.20;81.00;100202.66;5081045;28;19998;-63
2022/12/14 07:32:49;;;;;;;;;;;;;;;-3.23;81.07;100200.25;5083660;28;19935;-63
2022/12/14 07:35:15;;;;;;;;;;;;;;;-3.29;80.90;100200.66;5091333;28;19916;-63
2022/12/14 07:37:40;;;;;;;;;;;;;;;-3.31;81.08;100199.94;5080737;28;19916;-64
2022/12/14 07:40:05;;;;;;;;;;;;;;;-3.34;81.05;100208.75;5094752;28;19935;-63
2022/12/14 07:42:31;;;;;;;;;;;;;;;-3.37;81.00;100202.94;5082557;28;19924;-63
2022/12/14 07:44:56;;;;;;;;;;;;;;;-3.39;81.11;100204.78;5086991;28;19916;-63
2022/12/14 07:47:21;;;;;;;;;;;;;;;-3.41;81.19;100211.84;5084706;28;20003;-63
2022/12/14 07:49:46;;;;;;;;;;;;;;;-3.46;81.14;100212.13;5082053;28;19927;-64
2022/12/14 07:52:11;;;;;;;;;;;;;;;-3.50;81.17;100214.06;5083256;28;20011;-63
2022/12/14 07:54:36;;;;;;;;;;;;;;;-3.52;81.12;100215.94;5087632;28;19923;-64
2022/12/14 07:57:02;;;;;;;;;;;;;;;-3.53;81.22;100221.22;5093015;28;20757;-63
2022/12/14 07:59:27;;;;;;;;;;;;;;;-3.55;81.17;100226.50;5087157;28;20023;-63
2022/12/14 08:01:54;;;;;;;;;;;;;;;-3.57;81.19;100227.53;5089023;28;19919;-63
2022/12/14 08:04:21;;;;;;;;;;;;;;;-3.61;81.15;100226.06;5086323;28;21383;-63
2022/12/14 08:06:47;;;;;;;;;;;;;;;-3.64;81.30;100232.28;5087808;28;19920;-64
2022/12/14 08:09:12;;;;;;;;;;;;;;;-3.64;81.34;100234.88;5089047;28;20006;-63
2022/12/14 08:11:38;;;;;;;;;;;;;;;-3.66;81.35;100235.91;5086278;28;19948;-63
2022/12/14 08:14:04;;;;;;;;;;;;;;;-3.67;81.33;100232.47;5091888;28;19981;-63
2022/12/14 08:16:30;;;;;;;;;;;;;;;-3.68;81.33;100227.38;5099662;28;20478;-65
2022/12/14 08:18:56;;;;;;;;;;;;;;;-3.70;81.46;100232.66;5083584;28;19924;-64
2022/12/14 08:21:22;;;;;;;;;;;;;;;-3.72;81.30;100239.72;5085991;28;19920;-64
2022/12/14 08:23:48;;;;;;;;;;;;;;;-3.75;81.22;100243.31;5097915;28;20311;-64
2022/12/14 08:26:13;;;;;;;;;;;;;;;-3.76;81.29;100248.59;5086858;28;19997;-63
2022/12/14 08:28:38;;;;;;;;;;;;;;;-3.78;81.30;100246.09;5090885;28;19923;-63
2022/12/14 08:31:05;;;;;;;;;;;;;;;-3.78;81.41;100247.84;5083026;28;20375;-64
2022/12/14 08:33:31;;;;;;;;;;;;;;;-3.78;81.43;100247.84;5086147;28;19920;-64
2022/12/14 08:36:02;;;;;;;;;;;;;;;-3.79;81.37;100243.59;5087400;28;20323;-63
2022/12/14 08:38:28;;;;;;;;;;;;;;;-3.81;81.48;100235.06;5089614;28;19919;-63
2022/12/14 08:40:53;;;;;;;;;;;;;;;-3.81;81.48;100240.25;5084547;28;19916;-63
2022/12/14 08:43:18;;;;;;;;;;;;;;;-3.84;81.43;100232.66;5084832;28;20003;-63
2022/12/14 08:45:43;;;;;;;;;;;;;;;-3.86;81.54;100237.94;5084843;28;19912;-63
2022/12/14 08:48:09;;;;;;;;;;;;;;;-3.86;81.60;100235.34;5090892;28;19943;-63
2022/12/14 08:50:34;;;;;;;;;;;;;;;-3.84;81.75;100246.47;5081328;28;19917;-64
2022/12/14 08:52:59;;;;;;;;;;;;;;;-3.78;82.01;100245.25;5080571;28;19920;-63
2022/12/14 08:55:24;;;;;;;;;;;;;;;-3.68;82.13;100238.59;5083638;28;19977;-63
2022/12/14 08:57:50;;;;;;;;;;;;;;;-3.53;82.40;100240.22;5088158;28;19962;-63
2022/12/14 09:00:15;;;;;;;;;;;;;;;-3.37;82.65;100245.28;5079054;28;19999;-64
2022/12/14 09:02:40;;;;;;;;;;;;;;;-3.22;82.76;100236.50;5086009;28;19920;-63
2022/12/14 09:05:06;;;;;;;;;;;;;;;-3.12;82.50;100239.38;5088000;28;20410;-63
2022/12/14 09:07:31;;;;;;;;;;;;;;;-3.06;82.48;100233.78;5093702;28;19924;-64
2022/12/14 09:09:56;;;;;;;;;;;;;;;-3.02;82.29;100242.22;5085373;28;20264;-63
2022/12/14 09:12:22;;;;;;;;;;;;;;;-3.02;82.04;100239.59;5086876;28;19923;-63
2022/12/14 09:14:48;;;;;;;;;;;;;;;-3.02;81.83;100245.63;5084271;28;19916;-63
2022/12/14 09:17:14;;;;;;;;;;;;;;;-3.02;81.88;100245.63;5078850;28;19912;-63
2022/12/14 09:19:39;;;;;;;;;;;;;;;-3.02;81.75;100250.00;5081613;28;19912;-65
2022/12/14 09:22:04;;;;;;;;;;;;;;;-3.04;81.69;100263.09;5085026;28;19924;-62
2022/12/14 09:24:30;;;;;;;;;;;;;;;-2.99;81.90;100257.59;5078724;28;19927;-63
2022/12/14 09:26:58;;;;;;;;;;;;;;;-2.93;81.75;100252.81;5088992;28;20372;-64
2022/12/14 09:29:24;;;;;;;;;;;;;;;-2.88;81.81;100247.34;5090026;28;19995;-64
2022/12/14 09:31:49;;;;;;;;;;;;;;;-2.82;81.79;100244.34;5086152;28;19999;-63
2022/12/14 09:34:14;;;;;;;;;;;;;;;-2.76;81.78;100249.16;5086449;28;20239;-63
2022/12/14 09:36:39;;;;;;;;;;;;;;;-2.72;81.76;100258.41;5087307;28;20019;-63
2022/12/14 09:39:04;;;;;;;;;;;;;;;-2.65;81.77;100261.41;5082583;28;20341;-63
2022/12/14 09:41:32;;;;;;;;;;;;;;;-2.61;81.69;100255.91;5078791;28;19952;-63
2022/12/14 09:43:58;;;;;;;;;;;;;;;-2.55;81.66;100255.53;5087964;28;19920;-64
2022/12/14 09:46:46;;;;;;;;;;;;;;;-2.52;81.59;100252.72;5087498;28;19912;-63
2022/12/14 09:49:24;;;;;;;;;;;;;;;-2.48;81.48;100255.97;5076400;28;19923;-63
2022/12/14 09:51:50;;;;;;;;;;;;;;;-2.47;81.14;100262.81;5085830;28;19923;-63
2022/12/14 09:54:17;;;;;;;;;;;;;;;-2.45;81.00;100255.75;5079504;28;19927;-63
2022/12/14 09:56:43;;;;;;;;;;;;;;;-2.42;81.01;100247.75;5088233;28;20372;-63
2022/12/14 09:59:13;;;;;;;;;;;;;;;-2.46;80.88;100229.84;5086934;28;19916;-65
2022/12/14 10:01:47;;;;;;;;;;;;;;;-2.38;80.94;100241.41;5080311;28;19926;-63
2022/12/14 10:04:26;;;;;;;;;;;;;;;-2.36;80.78;100239.53;5081033;28;20398;-64
2022/12/14 10:07:03;;;;;;;;;;;;;;;-2.32;80.73;100242.75;5084128;28;19916;-63
2022/12/14 10:09:35;;;;;;;;;;;;;;;-2.30;80.76;100238.31;5090059;28;19931;-63
2022/12/14 10:12:13;;;;;;;;;;;;;;;-2.29;80.64;100246.00;5088064;28;20568;-63
2022/12/14 10:14:41;;;;;;;;;;;;;;;-2.26;80.54;100240.59;5087795;28;19928;-63
2022/12/14 10:17:19;;;;;;;;;;;;;;;-2.23;80.50;100247.34;5083072;28;19972;-64
2022/12/14 10:19:53;;;;;;;;;;;;;;;-2.21;80.40;100241.09;5083844;28;19918;-64
2022/12/14 10:22:19;;;;;;;;;;;;;;;-2.17;80.34;100241.72;5089102;28;19947;-63
2022/12/14 10:24:47;;;;;;;;;;;;;;;-2.15;80.22;100241.63;5083905;28;19923;-64
2022/12/14 10:27:16;;;;;;;;;;;;;;;-2.12;80.24;100247.44;5084811;28;19962;-63
2022/12/14 10:29:57;;;;;;;;;;;;;;;-2.09;80.13;100252.44;5085623;28;20371;-63
2022/12/14 10:32:34;;;;;;;;;;;;;;;-2.03;80.33;100253.78;5083742;28;19930;-64
2022/12/14 10:35:15;;;;;;;;;;;;;;;-2.01;80.28;100254.53;5085751;28;20006;-64
2022/12/14 10:37:42;;;;;;;;;;;;;;;-1.97;80.31;100246.41;5085363;28;19912;-62
2022/12/14 10:40:07;;;;;;;;;;;;;;;-1.93;80.26;100252.22;5082384;28;20306;-63
2022/12/14 10:42:41;;;;;;;;;;;;;;;-1.90;80.17;100252.03;5088508;28;20349;-63
2022/12/14 10:45:21;;;;;;;;;;;;;;;-1.87;80.08;100250.03;5093411;28;20435;-63
2022/12/14 10:47:52;;;;;;;;;;;;;;;-1.83;80.01;100249.81;5089940;28;19912;-63
2022/12/14 10:50:17;;;;;;;;;;;;;;;-1.80;79.91;100253.03;5079920;28;19916;-63
2022/12/14 10:52:44;;;;;;;;;;;;;;;-1.77;79.85;100246.78;5084064;28;19970;-62
2022/12/14 10:55:18;;;;;;;;;;;;;;;-1.74;79.84;100243.97;5090280;28;20550;-63
2022/12/14 10:57:43;;;;;;;;;;;;;;;-1.70;79.84;100248.88;5084577;28;20462;-63
2022/12/14 11:00:13;;;;;;;;;;;;;;;-1.68;79.96;100241.78;5076864;28;19931;-63
2022/12/14 11:02:40;;;;;;;;;;;;;;;-1.64;79.77;100248.44;5077346;28;19912;-63
2022/12/14 11:05:27;;;;;;;;;;;;;;;-1.60;79.90;100241.25;5084542;28;19920;-63
2022/12/14 11:07:52;;;;;;;;;;;;;;;-1.54;79.71;100246.00;5088199;28;19912;-63
2022/12/14 11:10:19;;;;;;;;;;;;;;;-1.51;79.86;100242.38;5083807;28;19973;-62
2022/12/14 11:13:14;;;;;;;;;;;;;;;-1.46;79.81;100241.09;5080636;28;20538;-64
2022/12/14 11:15:40;;;;;;;;;;;;;;;-1.41;79.69;100246.84;5081453;28;19912;-63
2022/12/14 11:18:15;;;;;;;;;;;;;;;-1.35;79.56;100246.38;5080987;28;20035;-63
2022/12/14 11:20:51;;;;;;;;;;;;;;;-1.29;79.76;100248.56;5087193;28;19924;-64
2022/12/14 11:23:19;;;;;;;;;;;;;;;-1.24;79.54;100253.44;5090755;28;20459;-64
2022/12/14 11:25:46;;;;;;;;;;;;;;;-1.19;79.67;100246.09;5082940;28;19916;-63
2022/12/14 11:28:16;;;;;;;;;;;;;;;-1.14;79.58;100246.63;5084068;28;20589;-63
2022/12/14 11:30:51;;;;;;;;;;;;;;;-1.07;79.61;100239.19;5083419;28;19926;-65
2022/12/14 11:33:16;;;;;;;;;;;;;;;-1.02;79.44;100234.47;5083527;28;20016;-63
2022/12/14 11:35:48;;;;;;;;;;;;;;;-0.95;79.23;100240.91;5082867;28;20547;-63
2022/12/14 11:38:14;;;;;;;;;;;;;;;-0.86;78.96;100244.63;5085555;28;20401;-63
2022/12/14 11:40:39;;;;;;;;;;;;;;;-0.82;78.99;100243.47;5083808;28;19978;-63
2022/12/14 11:43:13;;;;;;;;;;;;;;;-0.77;79.14;100246.56;5083194;28;19916;-63
2022/12/14 11:45:38;;;;;;;;;;;;;;;-0.74;79.62;100234.13;5091525;28;19942;-62
2022/12/14 11:48:13;;;;;;;;;;;;;;;-0.68;78.76;100240.66;5091485;28;20484;-64
2022/12/14 11:50:38;;;;;;;;;;;;;;;-0.54;78.51;100234.44;5086760;28;19959;-63
2022/12/14 11:53:05;;;;;;;;;;;;;;;-0.41;78.77;100233.38;5090234;28;19955;-62
2022/12/14 11:55:32;;;;;;;;;;;;;;;-0.25;78.63;100232.25;5084995;28;19916;-62
2022/12/14 11:57:58;;;;;;;;;;;;;;;-0.10;78.64;100231.88;5087544;28;20826;-62
2022/12/14 12:00:25;;;;;;;;;;;;;;;0.03;77.54;100234.41;5081942;28;19917;-63
2022/12/14 12:03:00;;;;;;;;;;;;;;;0.22;76.95;100237.22;5082349;28;19961;-63
2022/12/14 12:05:26;;;;;;;;;;;;;;;0.39;76.15;100230.72;5078939;28;19923;-63
2022/12/14 12:07:53;;;;;;;;;;;;;;;0.54;75.74;100234.72;5089803;28;20304;-62
2022/12/14 12:10:21;;;;;;;;;;;;;;;0.66;75.18;100229.47;5078895;28;19916;-62
2022/12/14 12:13:06;;;;;;;;;;;;;;;0.73;74.66;100234.09;5089880;28;19924;-62
2022/12/14 12:15:42;;;;;;;;;;;;;;;0.88;75.02;100227.66;5088671;28;20382;-62
2022/12/14 12:18:07;;;;;;;;;;;;;;;0.98;74.23;100229.50;5084974;28;20288;-62
2022/12/14 12:20:58;;;;;;;;;;;;;;;1.08;74.07;100230.41;5087434;28;19923;-63
2022/12/14 12:23:29;;;;;;;;;;;;;;;1.23;73.82;100229.16;5081294;28;19983;-62
2022/12/14 12:25:57;;;;;;;;;;;;;;;1.36;74.24;100229.81;5087859;28;19916;-63
2022/12/14 12:28:29;;;;;;;;;;;;;;;1.41;73.92;100227.63;5089651;28;20046;-63
2022/12/14 12:30:59;;;;;;;;;;;;;;;1.46;73.27;100230.72;5082842;28;19951;-62
2022/12/14 12:33:43;;;;;;;;;;;;;;;1.64;72.64;100232.75;5088111;28;20311;-62
2022/12/14 12:36:08;;;;;;;;;;;;;;;1.87;73.39;100234.28;5085601;28;20478;-63
2022/12/14 12:38:33;;;;;;;;;;;;;;;2.02;72.19;100230.34;5087342;28;19923;-62
2022/12/14 12:41:11;;;;;;;;;;;;;;;2.17;71.20;100233.44;5084523;28;19912;-62
2022/12/14 12:43:42;;;;;;;;;;;;;;;2.34;71.02;100237.25;5085007;28;19919;-62
2022/12/14 12:46:13;;;;;;;;;;;;;;;2.50;70.25;100237.56;5084987;28;19920;-62
2022/12/14 12:48:57;;;;;;;;;;;;;;;2.69;70.78;100239.41;5085125;28;20016;-61
2022/12/14 12:51:28;;;;;;;;;;;;;;;2.92;70.09;100240.84;5087768;28;19919;-61
2022/12/14 12:54:02;;;;;;;;;;;;;;;3.11;70.02;100243.47;5086031;28;20615;-62
2022/12/14 12:56:28;;;;;;;;;;;;;;;3.30;69.35;100244.44;5088469;28;19920;-62
2022/12/14 12:58:53;;;;;;;;;;;;;;;3.48;69.10;100252.47;5088138;28;19939;-63
2022/12/14 13:01:45;;;;;;;;;;;;;;;3.58;67.47;100259.34;5078606;28;20003;-62
2022/12/14 13:04:14;;;;;;;;;;;;;;;3.71;67.34;100259.03;5081645;28;19919;-62